createdAt,value
2017-11-12T00:00:07.704Z,63.50
2017-11-12T00:02:11.167Z,62.13
2017-11-12T00:04:13.811Z,60.07
2017-11-12T00:06:16.573Z,60.33
2017-11-12T00:08:19.249Z,61.37
2017-11-12T00:10:21.899Z,57.63
2017-11-12T00:12:25.348Z,79.63
2017-11-12T00:14:28.009Z,62.87
2017-11-12T00:16:30.701Z,77.50
2017-11-12T00:18:33.450Z,73.43
2017-11-12T00:20:36.145Z,85.20
2017-11-12T00:22:38.812Z,72.40
2017-11-12T00:24:41.525Z,86.40
2017-11-12T00:26:44.213Z,71.50
2017-11-12T00:28:46.872Z,83.53
2017-11-12T00:30:49.542Z,80.77
2017-11-12T00:32:52.225Z,88.47
2017-11-12T00:34:55.685Z,78.00
2017-11-12T00:36:58.381Z,88.87
2017-11-12T00:39:01.046Z,88.83
2017-11-12T00:41:03.849Z,89.30
2017-11-12T00:43:06.527Z,102.33
2017-11-12T00:45:09.194Z,83.47
2017-11-12T00:47:11.834Z,93.80
2017-11-12T00:49:14.518Z,85.13
2017-11-12T00:51:17.190Z,108.47
2017-11-12T00:53:19.863Z,104.13
2017-11-12T00:55:22.520Z,98.07
2017-11-12T00:57:25.212Z,91.97
2017-11-12T00:59:27.888Z,98.70
2017-11-12T01:01:30.543Z,100.43
2017-11-12T01:03:33.986Z,95.53
2017-11-12T01:05:36.673Z,90.00
2017-11-12T01:07:39.776Z,89.90
2017-11-12T01:09:42.475Z,99.13
2017-11-12T01:11:45.917Z,83.00
2017-11-12T01:13:48.584Z,96.87
2017-11-12T01:15:51.267Z,93.50
2017-11-12T01:17:53.949Z,78.77
2017-11-12T01:19:56.704Z,81.67
2017-11-12T01:21:59.479Z,75.77
2017-11-12T01:24:02.137Z,73.70
2017-11-12T01:26:04.782Z,73.93
2017-11-12T01:28:07.462Z,79.07
2017-11-12T01:30:10.128Z,88.20
2017-11-12T01:32:12.864Z,75.63
2017-11-12T01:34:15.597Z,76.53
2017-11-12T01:36:19.060Z,74.23
2017-11-12T01:38:21.710Z,86.67
2017-11-12T01:40:24.398Z,66.87
2017-11-12T01:42:27.079Z,72.37
2017-11-12T01:44:29.757Z,70.60
2017-11-12T01:46:32.438Z,71.73
2017-11-12T01:48:35.108Z,65.13
2017-11-12T01:50:37.779Z,81.57
2017-11-12T01:52:40.481Z,72.63
2017-11-12T01:54:43.220Z,68.90
2017-11-12T01:56:45.862Z,76.50
2017-11-12T01:58:49.347Z,72.73
2017-11-12T02:00:52.062Z,61.80
2017-11-12T02:02:54.797Z,71.87
2017-11-12T02:04:57.693Z,69.70
2017-11-12T02:07:01.119Z,72.57
2017-11-12T02:09:03.866Z,78.37
2017-11-12T02:11:07.297Z,77.87
2017-11-12T02:13:09.983Z,78.70
2017-11-12T02:15:12.712Z,78.53
2017-11-12T02:17:16.138Z,73.10
2017-11-12T02:19:18.849Z,74.00
2017-11-12T02:21:21.581Z,72.43
2017-11-12T02:23:24.281Z,82.03
2017-11-12T02:25:27.049Z,74.00
2017-11-12T02:27:29.885Z,79.93
2017-11-12T02:29:32.623Z,72.80
2017-11-12T02:31:35.314Z,77.40
2017-11-12T02:33:38.056Z,71.87
2017-11-12T02:35:40.758Z,78.57
2017-11-12T02:37:43.514Z,77.60
2017-11-12T02:39:46.229Z,78.73
2017-11-12T02:41:48.945Z,74.90
2017-11-12T02:43:52.540Z,67.07
2017-11-12T02:45:56.007Z,72.90
2017-11-12T02:47:58.709Z,73.30
2017-11-12T02:50:02.238Z,81.77
2017-11-12T02:52:04.952Z,80.23
2017-11-12T02:54:07.728Z,79.93
2017-11-12T02:56:10.462Z,69.27
2017-11-12T02:58:13.133Z,66.37
2017-11-12T03:00:15.817Z,75.13
2017-11-12T03:02:18.532Z,79.23
2017-11-12T03:04:21.275Z,68.60
2017-11-12T03:06:23.936Z,70.67
2017-11-12T03:08:26.635Z,65.90
2017-11-12T03:10:29.299Z,60.80
2017-11-12T03:12:31.963Z,67.37
2017-11-12T03:14:34.666Z,74.20
2017-11-12T03:16:37.337Z,61.77
2017-11-12T03:18:40.015Z,85.80
2017-11-12T03:20:42.908Z,69.80
2017-11-12T03:22:45.591Z,71.30
2017-11-12T03:24:48.549Z,69.20
2017-11-12T03:26:52.426Z,76.63
2017-11-12T03:28:55.897Z,76.20
2017-11-12T03:30:58.580Z,70.10
2017-11-12T03:33:02.035Z,79.73
2017-11-12T03:35:04.701Z,67.70
2017-11-12T03:37:07.378Z,91.80
2017-11-12T03:39:10.074Z,75.50
2017-11-12T03:41:12.734Z,65.20
2017-11-12T03:43:15.406Z,70.10
2017-11-12T03:45:18.961Z,98.37
2017-11-12T03:47:22.404Z,75.40
2017-11-12T03:49:25.112Z,75.33
2017-11-12T03:51:27.839Z,82.93
2017-11-12T03:53:30.556Z,81.10
2017-11-12T03:55:33.294Z,75.57
2017-11-12T03:57:36.016Z,85.13
2017-11-12T03:59:38.682Z,65.47
2017-11-12T04:01:41.385Z,80.13
2017-11-12T04:03:44.872Z,88.63
2017-11-12T04:05:47.597Z,72.53
2017-11-12T04:07:50.306Z,68.37
2017-11-12T04:09:53.359Z,66.37
2017-11-12T04:11:56.039Z,84.80
2017-11-12T04:13:58.741Z,65.33
2017-11-12T04:16:01.429Z,87.43
2017-11-12T04:18:14.189Z,78.87
2017-11-12T04:20:16.902Z,86.07
2017-11-12T04:22:19.609Z,74.03
2017-11-12T04:24:22.309Z,76.70
2017-11-12T04:26:25.832Z,74.03
2017-11-12T04:28:28.535Z,85.67
2017-11-12T04:30:31.190Z,91.17
2017-11-12T04:32:34.066Z,77.23
2017-11-12T04:34:36.747Z,68.50
2017-11-12T04:36:39.390Z,82.00
2017-11-12T04:38:42.084Z,78.67
2017-11-12T04:40:44.869Z,72.30
2017-11-12T04:42:47.720Z,79.33
2017-11-12T04:44:51.146Z,82.83
2017-11-12T04:46:53.827Z,75.60
2017-11-12T04:48:56.472Z,70.60
2017-11-12T04:50:59.132Z,84.57
2017-11-12T04:53:02.589Z,77.37
2017-11-12T04:55:05.241Z,77.93
2017-11-12T04:57:07.903Z,71.03
2017-11-12T04:59:10.692Z,77.67
2017-11-12T05:01:13.362Z,73.63
2017-11-12T05:03:16.044Z,70.33
2017-11-12T05:05:18.713Z,79.00
2017-11-12T05:07:21.394Z,72.33
2017-11-12T05:09:24.074Z,73.07
2017-11-12T05:11:26.757Z,69.90
2017-11-12T05:13:29.420Z,75.57
2017-11-12T05:15:32.110Z,68.90
2017-11-12T05:17:34.780Z,77.90
2017-11-12T05:19:37.441Z,75.80
2017-11-12T05:21:40.124Z,78.83
2017-11-12T05:23:42.789Z,76.47
2017-11-12T05:25:45.453Z,84.30
2017-11-12T05:27:48.895Z,79.07
2017-11-12T05:29:51.562Z,69.57
2017-11-12T05:31:54.236Z,77.10
2017-11-12T05:33:56.915Z,87.80
2017-11-12T05:35:59.568Z,74.53
2017-11-12T05:38:02.222Z,88.80
2017-11-12T05:40:05.685Z,75.77
2017-11-12T05:42:08.397Z,84.80
2017-11-12T05:44:11.832Z,74.43
2017-11-12T05:46:14.507Z,81.33
2017-11-12T05:48:17.184Z,78.03
2017-11-12T05:50:19.952Z,94.30
2017-11-12T05:52:22.641Z,72.40
2017-11-12T05:54:25.328Z,92.20
2017-11-12T05:56:28.211Z,89.77
2017-11-12T05:58:30.914Z,93.60
2017-11-12T06:00:33.637Z,75.23
2017-11-12T06:02:36.295Z,77.40
2017-11-12T06:04:38.997Z,86.23
2017-11-12T06:06:41.768Z,85.27
2017-11-12T06:08:44.755Z,80.83
2017-11-12T06:10:47.617Z,88.43
2017-11-12T06:12:50.307Z,77.40
2017-11-12T06:14:53.022Z,75.93
2017-11-12T06:16:55.766Z,77.03
2017-11-12T06:18:58.455Z,83.47
2017-11-12T06:21:01.148Z,79.83
2017-11-12T06:23:03.834Z,80.97
2017-11-12T06:25:08.001Z,83.17
2017-11-12T06:27:10.692Z,83.83
2017-11-12T06:29:13.398Z,70.53
2017-11-12T06:31:16.134Z,77.37
2017-11-12T06:33:18.842Z,77.30
2017-11-12T06:35:21.531Z,83.73
2017-11-12T06:37:24.317Z,73.03
2017-11-12T06:39:27.016Z,85.77
2017-11-12T06:41:30.542Z,88.80
2017-11-12T06:43:33.214Z,99.37
2017-11-12T06:45:35.909Z,80.47
2017-11-12T06:47:38.667Z,83.17
2017-11-12T06:49:41.322Z,76.87
2017-11-12T06:51:44.862Z,78.20
2017-11-12T06:53:47.524Z,72.70
2017-11-12T06:55:50.176Z,79.37
2017-11-12T06:57:52.938Z,77.63
2017-11-12T06:59:56.385Z,74.13
2017-11-12T07:01:59.032Z,79.13
2017-11-12T07:04:01.731Z,74.30
2017-11-12T07:06:04.397Z,84.67
2017-11-12T07:08:07.078Z,93.67
2017-11-12T07:10:09.755Z,84.90
2017-11-12T07:12:12.394Z,81.43
2017-11-12T07:14:15.840Z,82.33
2017-11-12T07:16:18.515Z,81.07
2017-11-12T07:18:21.195Z,99.40
2017-11-12T07:20:23.949Z,93.57
2017-11-12T07:22:26.660Z,80.93
2017-11-12T07:24:29.330Z,87.20
2017-11-12T07:26:32.007Z,85.00
2017-11-12T07:28:34.668Z,102.33
2017-11-12T07:30:37.334Z,84.10
2017-11-12T07:32:40.110Z,95.67
2017-11-12T07:34:42.783Z,80.40
2017-11-12T07:36:45.484Z,77.43
2017-11-12T07:38:48.162Z,81.83
2017-11-12T07:40:50.833Z,88.57
2017-11-12T07:42:53.503Z,87.30
2017-11-12T07:44:56.179Z,94.00
2017-11-12T07:46:58.940Z,86.93
2017-11-12T07:49:01.610Z,89.07
2017-11-12T07:51:04.278Z,80.77
2017-11-12T07:53:07.074Z,80.03
2017-11-12T07:55:09.750Z,76.73
2017-11-12T07:57:12.430Z,79.47
2017-11-12T07:59:15.356Z,91.93
2017-11-12T08:01:18.024Z,86.20
2017-11-12T08:03:20.732Z,77.37
2017-11-12T08:05:23.433Z,87.43
2017-11-12T08:07:26.102Z,85.27
2017-11-12T08:09:28.820Z,87.30
2017-11-12T08:11:31.552Z,77.67
2017-11-12T08:13:35.047Z,74.17
2017-11-12T08:15:39.053Z,77.87
2017-11-12T08:17:41.768Z,76.53
2017-11-12T08:19:44.440Z,86.63
2017-11-12T08:21:47.127Z,79.57
2017-11-12T08:23:49.788Z,66.73
2017-11-12T08:25:52.456Z,68.97
2017-11-12T08:27:55.183Z,75.03
2017-11-12T08:29:57.838Z,82.43
2017-11-12T08:32:02.252Z,74.77
2017-11-12T08:34:04.975Z,68.60
2017-11-12T08:36:08.432Z,70.43
2017-11-12T08:38:11.116Z,63.07
2017-11-12T08:40:13.854Z,48.93
2017-11-12T08:42:16.519Z,38.43
2017-11-12T08:44:19.306Z,43.53
2017-11-12T08:46:22.086Z,45.10
2017-11-12T08:48:24.771Z,52.43
2017-11-12T08:50:27.484Z,47.23
2017-11-12T08:52:30.282Z,57.37
2017-11-12T08:54:33.911Z,56.97
2017-11-12T08:56:36.593Z,58.23
2017-11-12T08:58:39.302Z,57.37
2017-11-12T09:00:41.984Z,61.50
2017-11-12T09:02:44.692Z,67.23
2017-11-12T09:04:47.441Z,69.67
2017-11-12T09:06:50.149Z,74.83
2017-11-12T09:08:53.629Z,75.17
2017-11-12T09:10:56.325Z,66.43
2017-11-12T09:12:59.013Z,73.87
2017-11-12T09:15:01.701Z,75.67
2017-11-12T09:17:04.445Z,66.67
2017-11-12T09:19:07.890Z,74.87
2017-11-12T09:21:10.584Z,69.60
2017-11-12T09:23:13.282Z,66.83
2017-11-12T09:25:15.997Z,67.33
2017-11-12T09:27:18.714Z,64.97
2017-11-12T09:29:21.415Z,61.43
2017-11-12T09:31:25.207Z,53.73
2017-11-12T09:33:28.667Z,51.00
2017-11-12T09:35:31.347Z,44.70
2017-11-12T09:37:34.108Z,41.30
2017-11-12T09:39:36.815Z,34.43
2017-11-12T09:41:39.515Z,43.83
2017-11-12T09:43:42.202Z,32.50
2017-11-12T09:45:45.640Z,35.07
2017-11-12T09:47:48.364Z,22.00
2017-11-12T09:49:51.053Z,24.20
2017-11-12T09:51:54.475Z,27.07
2017-11-12T09:53:57.173Z,20.93
2017-11-12T09:55:59.882Z,21.43
2017-11-12T09:58:02.547Z,17.47
2017-11-12T10:00:05.263Z,16.80
2017-11-12T10:02:07.915Z,14.43
2017-11-12T10:04:10.572Z,14.37
2017-11-12T10:06:13.287Z,15.10
2017-11-12T10:08:16.709Z,18.23
2017-11-12T10:10:19.396Z,14.27
2017-11-12T10:12:22.084Z,17.47
2017-11-12T10:14:24.735Z,23.23
2017-11-12T10:16:27.415Z,20.30
2017-11-12T10:18:30.065Z,12.10
2017-11-12T10:20:32.789Z,16.13
2017-11-12T10:22:37.502Z,15.70
2017-11-12T10:24:40.201Z,15.67
2017-11-12T10:26:42.872Z,12.13
2017-11-12T10:28:45.535Z,12.80
2017-11-12T10:30:48.182Z,7.77
2017-11-12T10:32:50.872Z,10.90
2017-11-12T10:34:53.535Z,12.20
2017-11-12T10:36:56.175Z,9.70
2017-11-12T10:38:58.851Z,14.47
2017-11-12T10:41:01.513Z,10.53
2017-11-12T10:43:04.183Z,9.20
2017-11-12T10:45:06.851Z,8.50
2017-11-12T10:47:10.314Z,8.70
2017-11-12T10:49:12.992Z,11.40
2017-11-12T10:51:15.650Z,11.50
2017-11-12T10:53:18.309Z,8.57
2017-11-12T10:55:21.774Z,8.60
2017-11-12T10:57:24.420Z,11.00
2017-11-12T10:59:27.101Z,11.27
2017-11-12T11:01:29.825Z,12.03
2017-11-12T11:03:32.477Z,10.50
2017-11-12T11:05:35.164Z,10.80
2017-11-12T11:07:37.868Z,11.70
2017-11-12T11:09:41.269Z,12.03
2017-11-12T11:11:43.930Z,12.17
2017-11-12T11:13:47.366Z,11.30
2017-11-12T11:15:50.095Z,11.20
2017-11-12T11:17:52.754Z,9.60
2017-11-12T11:19:55.439Z,10.47
2017-11-12T11:21:58.088Z,13.07
2017-11-12T11:24:00.782Z,13.73
2017-11-12T11:26:03.466Z,13.93
2017-11-12T11:28:06.120Z,14.10
2017-11-12T11:30:08.775Z,8.20
2017-11-12T11:32:11.481Z,7.83
2017-11-12T11:34:14.182Z,11.80
2017-11-12T11:36:17.611Z,11.50
2017-11-12T11:38:20.310Z,9.10
2017-11-12T11:40:22.978Z,7.30
2017-11-12T11:42:25.748Z,8.50
2017-11-12T11:44:28.544Z,9.70
2017-11-12T11:46:31.237Z,6.63
2017-11-12T11:48:33.912Z,9.30
2017-11-12T11:50:36.663Z,10.93
2017-11-12T11:52:39.325Z,9.67
2017-11-12T11:54:42.057Z,12.63
2017-11-12T11:56:44.714Z,16.13
2017-11-12T11:58:47.389Z,11.43
2017-11-12T12:00:50.520Z,11.07
2017-11-12T12:02:53.955Z,15.70
2017-11-12T12:04:56.665Z,14.13
2017-11-12T12:06:59.357Z,10.37
2017-11-12T12:09:02.814Z,10.53
2017-11-12T12:11:05.608Z,14.77
2017-11-12T12:13:09.029Z,15.20
2017-11-12T12:15:12.493Z,21.87
2017-11-12T12:17:15.180Z,26.77
2017-11-12T12:19:17.853Z,20.93
2017-11-12T12:21:20.543Z,12.20
2017-11-12T12:23:23.973Z,11.23
2017-11-12T12:25:26.682Z,13.10
2017-11-12T12:27:29.337Z,11.07
2017-11-12T12:29:32.116Z,8.03
2017-11-12T12:31:34.807Z,7.50
2017-11-12T12:33:37.485Z,12.10
2017-11-12T12:35:40.135Z,8.37
2017-11-12T12:37:42.924Z,12.27
2017-11-12T12:39:45.577Z,11.10
2017-11-12T12:41:48.276Z,9.10
2017-11-12T12:43:51.018Z,9.10
2017-11-12T12:45:54.499Z,8.90
2017-11-12T12:47:57.948Z,9.70
2017-11-12T12:50:00.621Z,12.70
2017-11-12T12:52:03.263Z,7.70
2017-11-12T12:54:06.922Z,4.50
2017-11-12T12:56:09.578Z,5.10
2017-11-12T12:58:12.240Z,9.50
2017-11-12T13:00:14.928Z,5.20
2017-11-12T13:02:17.691Z,6.17
2017-11-12T13:04:20.368Z,4.27
2017-11-12T13:06:23.078Z,6.87
2017-11-12T13:08:25.831Z,4.40
2017-11-12T13:10:28.513Z,3.17
2017-11-12T13:12:31.200Z,4.10
2017-11-12T13:14:34.025Z,4.67
2017-11-12T13:16:37.493Z,5.87
2017-11-12T13:18:40.205Z,4.37
2017-11-12T13:20:43.827Z,4.37
2017-11-12T13:22:46.515Z,3.30
2017-11-12T13:24:49.234Z,4.87
2017-11-12T13:26:51.937Z,4.20
2017-11-12T13:28:54.648Z,5.17
2017-11-12T13:30:57.366Z,4.90
2017-11-12T13:33:00.922Z,4.93
2017-11-12T13:35:03.733Z,4.77
2017-11-12T13:37:06.453Z,4.13
2017-11-12T13:39:09.235Z,4.23
2017-11-12T13:41:11.916Z,3.50
2017-11-12T13:43:14.796Z,6.40
2017-11-12T13:45:17.751Z,3.43
2017-11-12T13:47:21.408Z,4.67
2017-11-12T13:49:24.286Z,3.00
2017-11-12T13:51:26.949Z,2.60
2017-11-12T13:53:29.616Z,2.93
2017-11-12T13:55:32.304Z,2.80
2017-11-12T13:57:34.965Z,3.80
2017-11-12T13:59:37.817Z,2.60
2017-11-12T14:01:41.271Z,5.60
2017-11-12T14:03:44.718Z,2.63
2017-11-12T14:05:47.563Z,2.57
2017-11-12T14:07:50.270Z,4.57
2017-11-12T14:09:52.986Z,2.67
2017-11-12T14:11:55.654Z,3.83
2017-11-12T14:13:58.429Z,4.17
2017-11-12T14:16:01.102Z,3.63
2017-11-12T14:18:03.756Z,4.20
2017-11-12T14:20:06.441Z,3.57
2017-11-12T14:22:09.096Z,3.80
2017-11-12T14:24:12.558Z,5.83
2017-11-12T14:26:15.235Z,3.63
2017-11-12T14:28:17.890Z,4.00
2017-11-12T14:30:20.566Z,6.17
2017-11-12T14:32:23.428Z,3.80
2017-11-12T14:34:26.105Z,7.03
2017-11-12T14:36:28.806Z,3.43
2017-11-12T14:38:31.481Z,4.67
2017-11-12T14:40:35.383Z,11.90
2017-11-12T14:42:38.084Z,6.27
2017-11-12T14:44:40.765Z,4.67
2017-11-12T14:46:43.625Z,4.00
2017-11-12T14:48:47.410Z,8.73
2017-11-12T14:50:50.085Z,5.03
2017-11-12T14:52:52.775Z,11.20
2017-11-12T14:54:55.445Z,5.50
2017-11-12T14:56:58.092Z,6.30
2017-11-12T14:59:01.552Z,8.03
2017-11-12T15:01:04.221Z,11.20
2017-11-12T15:03:06.909Z,10.97
2017-11-12T15:05:10.347Z,12.90
2017-11-12T15:07:13.060Z,5.30
2017-11-12T15:09:15.817Z,6.57
2017-11-12T15:11:18.486Z,6.20
2017-11-12T15:13:21.145Z,6.50
2017-11-12T15:15:23.823Z,6.23
2017-11-12T15:17:26.713Z,7.90
2017-11-12T15:19:29.387Z,20.20
2017-11-12T15:21:32.172Z,23.53
2017-11-12T15:23:34.841Z,67.77
2017-11-12T15:25:37.519Z,15.70
2017-11-12T15:27:40.291Z,22.27
2017-11-12T15:29:42.969Z,19.67
2017-11-12T15:31:45.634Z,10.07
2017-11-12T15:33:48.318Z,28.63
2017-11-12T15:35:51.021Z,8.00
2017-11-12T15:37:53.741Z,18.27
2017-11-12T15:39:56.487Z,14.30
2017-11-12T15:41:59.145Z,5.93
2017-11-12T15:44:01.911Z,20.60
2017-11-12T15:46:04.596Z,37.47
2017-11-12T15:48:07.280Z,42.80
2017-11-12T15:50:09.939Z,11.20
2017-11-12T15:52:12.640Z,21.77
2017-11-12T15:54:15.381Z,57.90
2017-11-12T15:56:18.133Z,43.33
2017-11-12T15:58:21.868Z,12.00
2017-11-12T16:00:24.644Z,27.37
2017-11-12T16:02:27.446Z,32.03
2017-11-12T16:04:30.128Z,19.70
2017-11-12T16:06:32.798Z,7.53
2017-11-12T16:08:35.628Z,33.03
2017-11-12T16:10:39.070Z,6.20
2017-11-12T16:12:41.841Z,9.03
2017-11-12T16:14:44.888Z,9.47
2017-11-12T16:16:48.342Z,6.90
2017-11-12T16:18:50.990Z,8.57
2017-11-12T16:20:53.730Z,9.37
2017-11-12T16:22:57.176Z,8.90
2017-11-12T16:24:59.932Z,10.70
2017-11-12T16:27:02.593Z,8.00
2017-11-12T16:29:05.305Z,17.03
2017-11-12T16:31:08.067Z,9.67
2017-11-12T16:33:10.722Z,13.00
2017-11-12T16:35:14.168Z,13.13
2017-11-12T16:37:16.847Z,13.73
2017-11-12T16:39:19.531Z,15.10
2017-11-12T16:41:22.276Z,19.13
2017-11-12T16:43:24.945Z,15.60
2017-11-12T16:45:27.606Z,11.13
2017-11-12T16:47:30.305Z,12.97
2017-11-12T16:49:32.981Z,14.97
2017-11-12T16:51:35.649Z,12.40
2017-11-12T16:53:38.430Z,14.07
2017-11-12T16:55:41.100Z,13.90
2017-11-12T16:57:43.779Z,18.63
2017-11-12T16:59:46.594Z,17.17
2017-11-12T17:01:49.274Z,16.47
2017-11-12T17:03:52.007Z,15.37
2017-11-12T17:05:54.702Z,14.17
2017-11-12T17:07:57.395Z,17.00
2017-11-12T17:10:00.077Z,21.37
2017-11-12T17:12:02.772Z,21.90
2017-11-12T17:14:05.427Z,23.60
2017-11-12T17:16:08.097Z,19.00
2017-11-12T17:18:10.793Z,20.97
2017-11-12T17:20:13.473Z,19.50
2017-11-12T17:22:16.126Z,14.03
2017-11-12T17:24:18.808Z,11.97
2017-11-12T17:26:21.548Z,19.10
2017-11-12T17:28:24.213Z,14.83
2017-11-12T17:30:27.002Z,13.53
2017-11-12T17:32:29.664Z,13.73
2017-11-12T17:34:32.360Z,19.57
2017-11-12T17:36:35.025Z,12.40
2017-11-12T17:38:37.679Z,15.77
2017-11-12T17:40:41.126Z,22.53
2017-11-12T17:42:43.881Z,26.03
2017-11-12T17:44:46.548Z,23.63
2017-11-12T17:46:49.234Z,18.70
2017-11-12T17:48:51.911Z,14.80
2017-11-12T17:50:54.589Z,43.17
2017-11-12T17:52:57.285Z,28.60
2017-11-12T17:54:59.939Z,19.53
2017-11-12T17:57:02.578Z,9.80
2017-11-12T17:59:06.076Z,14.40
2017-11-12T18:01:08.748Z,13.50
2017-11-12T18:03:12.206Z,12.43
2017-11-12T18:05:14.896Z,10.77
2017-11-12T18:07:17.627Z,14.40
2017-11-12T18:09:20.299Z,16.33
2017-11-12T18:11:22.981Z,13.07
2017-11-12T18:13:25.634Z,9.30
2017-11-12T18:15:29.068Z,15.47
2017-11-12T18:17:31.770Z,19.00
2017-11-12T18:19:34.442Z,12.77
2017-11-12T18:21:37.524Z,15.40
2017-11-12T18:23:40.270Z,10.93
2017-11-12T18:25:43.020Z,14.03
2017-11-12T18:27:46.546Z,13.60
2017-11-12T18:29:49.271Z,39.40
2017-11-12T18:31:51.942Z,16.60
2017-11-12T18:33:54.882Z,14.43
2017-11-12T18:35:57.595Z,14.37
2017-11-12T18:38:00.349Z,14.57
2017-11-12T18:40:03.111Z,20.20
2017-11-12T18:42:05.837Z,23.33
2017-11-12T18:44:08.977Z,19.53
2017-11-12T18:46:11.763Z,29.80
2017-11-12T18:48:14.501Z,19.33
2017-11-12T18:50:19.148Z,19.90
2017-11-12T18:52:22.151Z,18.73
2017-11-12T18:54:24.839Z,26.33
2017-11-12T18:56:33.224Z,16.40
2017-11-12T18:58:36.109Z,18.60
2017-11-12T19:00:54.847Z,19.00
2017-11-12T19:03:03.234Z,10.90
2017-11-12T19:05:09.303Z,15.63
2017-11-12T19:07:18.762Z,18.07
2017-11-12T19:09:25.494Z,18.90
2017-11-12T19:11:29.038Z,22.93
2017-11-12T19:13:31.817Z,13.50
2017-11-12T19:15:34.688Z,18.60
2017-11-12T19:17:58.256Z,13.93
2017-11-12T19:20:18.883Z,16.47
2017-11-12T19:22:23.550Z,13.20
2017-11-12T19:24:32.119Z,12.07
2017-11-12T19:26:37.958Z,20.03
2017-11-12T19:28:45.225Z,15.27
2017-11-12T19:30:47.920Z,14.43
2017-11-12T19:32:50.659Z,17.03
2017-11-12T19:34:53.351Z,10.70
2017-11-12T19:36:56.028Z,15.33
2017-11-12T19:38:58.719Z,17.53
2017-11-12T19:41:01.449Z,16.03
2017-11-12T19:43:04.862Z,11.87
2017-11-12T19:45:07.561Z,17.30
2017-11-12T19:47:10.211Z,12.30
2017-11-12T19:49:12.878Z,15.23
2017-11-12T19:51:16.398Z,14.13
2017-11-12T19:53:19.088Z,12.27
2017-11-12T19:55:21.741Z,17.87
2017-11-12T19:57:24.418Z,14.47
2017-11-12T19:59:27.185Z,17.60
2017-11-12T20:01:30.616Z,14.20
2017-11-12T20:03:33.309Z,17.23
2017-11-12T20:05:36.002Z,20.73
2017-11-12T20:07:38.833Z,16.73
2017-11-12T20:09:41.504Z,22.10
2017-11-12T20:11:44.187Z,23.53
2017-11-12T20:13:46.878Z,19.13
2017-11-12T20:15:49.540Z,28.13
2017-11-12T20:17:52.223Z,21.87
2017-11-12T20:19:54.895Z,23.53
2017-11-12T20:21:57.559Z,14.97
2017-11-12T20:24:00.269Z,12.00
2017-11-12T20:26:03.022Z,14.27
2017-11-12T20:28:05.700Z,16.20
2017-11-12T20:30:08.485Z,21.60
2017-11-12T20:32:11.168Z,19.30
2017-11-12T20:34:13.832Z,13.30
2017-11-12T20:36:16.633Z,12.20
2017-11-12T20:38:19.308Z,18.90
2017-11-12T20:40:21.969Z,18.43
2017-11-12T20:42:24.673Z,13.50
2017-11-12T20:44:27.366Z,25.27
2017-11-12T20:46:30.065Z,21.37
2017-11-12T20:48:32.804Z,15.30
2017-11-12T20:50:35.475Z,21.77
2017-11-12T20:52:38.145Z,17.50
2017-11-12T20:54:40.872Z,15.87
2017-11-12T20:56:44.517Z,16.80
2017-11-12T20:58:47.200Z,11.73
2017-11-12T21:00:49.884Z,17.20
2017-11-12T21:02:52.728Z,11.87
2017-11-12T21:04:56.135Z,27.57
2017-11-12T21:06:59.889Z,26.70
2017-11-12T21:09:04.445Z,22.80
2017-11-12T21:11:07.223Z,16.07
2017-11-12T21:13:10.003Z,14.23
2017-11-12T21:15:12.691Z,11.40
2017-11-12T21:17:15.368Z,17.13
2017-11-12T21:19:18.793Z,14.30
2017-11-12T21:21:24.149Z,10.80
2017-11-12T21:23:28.090Z,14.00
2017-11-12T21:25:30.786Z,18.60
2017-11-12T21:27:33.463Z,22.50
2017-11-12T21:29:36.139Z,16.43
2017-11-12T21:31:39.757Z,17.90
2017-11-12T21:33:50.238Z,18.70
2017-11-12T21:36:03.648Z,27.07
2017-11-12T21:38:06.380Z,17.27
2017-11-12T21:40:09.104Z,24.30
2017-11-12T21:42:11.840Z,15.43
2017-11-12T21:44:14.554Z,23.60
2017-11-12T21:46:17.236Z,15.50
2017-11-12T21:48:19.944Z,18.13
2017-11-12T21:50:23.380Z,23.43
2017-11-12T21:52:26.041Z,31.37
2017-11-12T21:54:29.111Z,23.57
2017-11-12T21:56:31.905Z,25.43
2017-11-12T21:58:34.815Z,26.23
2017-11-12T22:00:37.561Z,22.67
2017-11-12T22:02:40.230Z,17.90
2017-11-12T22:04:42.914Z,25.90
2017-11-12T22:06:45.614Z,19.70
2017-11-12T22:08:48.292Z,18.30
2017-11-12T22:10:51.148Z,13.63
2017-11-12T22:12:53.845Z,14.83
2017-11-12T22:14:56.500Z,19.10
2017-11-12T22:16:59.204Z,16.40
2017-11-12T22:19:01.906Z,13.20
2017-11-12T22:21:04.598Z,13.63
2017-11-12T22:23:08.085Z,19.43
2017-11-12T22:25:11.549Z,13.93
2017-11-12T22:27:14.223Z,14.57
2017-11-12T22:29:16.980Z,18.63
2017-11-12T22:31:19.964Z,16.80
2017-11-12T22:33:22.674Z,15.60
2017-11-12T22:35:27.289Z,15.63
2017-11-12T22:37:29.959Z,24.80
2017-11-12T22:39:32.608Z,14.40
2017-11-12T22:41:35.391Z,14.67
2017-11-12T22:43:38.068Z,8.00
2017-11-12T22:45:40.728Z,9.30
2017-11-12T22:47:43.421Z,17.27
2017-11-12T22:49:46.081Z,12.13
2017-11-12T22:51:48.733Z,11.67
2017-11-12T22:53:52.197Z,11.20
2017-11-12T22:55:54.867Z,12.13
2017-11-12T22:57:57.524Z,9.00
2017-11-12T23:00:00.302Z,7.57
2017-11-12T23:02:02.947Z,7.57
2017-11-12T23:04:06.375Z,16.67
2017-11-12T23:06:09.141Z,12.93
2017-11-12T23:08:11.803Z,8.93
2017-11-12T23:10:14.492Z,9.27
2017-11-12T23:12:17.179Z,10.40
2017-11-12T23:14:19.868Z,15.03
2017-11-12T23:16:22.515Z,9.50
2017-11-12T23:18:25.195Z,8.83
2017-11-12T23:20:27.840Z,6.33
2017-11-12T23:22:31.285Z,10.47
2017-11-12T23:24:33.976Z,11.73
2017-11-12T23:26:36.656Z,10.80
2017-11-12T23:28:39.402Z,9.53
2017-11-12T23:30:42.109Z,11.90
2017-11-12T23:32:44.774Z,4.87
2017-11-12T23:34:47.436Z,13.13
2017-11-12T23:36:50.240Z,16.37
2017-11-12T23:38:52.906Z,11.00
2017-11-12T23:40:55.558Z,14.57
2017-11-12T23:42:58.232Z,11.53
2017-11-12T23:45:01.018Z,7.10
2017-11-12T23:47:03.667Z,6.07
2017-11-12T23:49:07.131Z,12.43
2017-11-12T23:51:09.779Z,5.00
2017-11-12T23:53:12.640Z,12.53
2017-11-12T23:55:15.318Z,11.10
2017-11-12T23:57:17.991Z,9.53
2017-11-12T23:59:20.680Z,13.33
